sensor_id;sensor_type;location;lat;lon;timestamp;pressure;altitude;pressure_sealevel;temperature;humidity
9141;BME280;46330;50.822;7.126;2023-02-19T00:02:17;101224.28;;;8.95;100.00
9141;BME280;46330;50.822;7.126;2023-02-19T00:04:44;101215.56;;;8.95;100.00
9141;BME280;46330;50.822;7.126;2023-02-19T00:07:13;101227.72;;;9.02;100.00
9141;BME280;46330;50.822;7.126;2023-02-19T00:09:42;101224.25;;;8.98;100.00
9141;BME280;46330;50.822;7.126;2023-02-19T00:12:10;101215.56;;;8.99;100.00
9141;BME280;46330;50.822;7.126;2023-02-19T00:14:38;101199.91;;;9.01;100.00
9141;BME280;46330;50.822;7.126;2023-02-19T00:17:06;101202.50;;;9.01;100.00
9141;BME280;46330;50.822;7.126;2023-02-19T00:19:34;101212.06;;;9.03;100.00
9141;BME280;46330;50.822;7.126;2023-02-19T00:22:02;101202.50;;;9.05;100.00
9141;BME280;46330;50.822;7.126;2023-02-19T00:24:30;101205.97;;;9.04;100.00
9141;BME280;46330;50.822;7.126;2023-02-19T00:26:59;101208.59;;;9.04;100.00
9141;BME280;46330;50.822;7.126;2023-02-19T00:29:28;101207.69;;;9.07;100.00
9141;BME280;46330;50.822;7.126;2023-02-19T00:31:56;101204.22;;;9.08;100.00
9141;BME280;46330;50.822;7.126;2023-02-19T00:34:24;101185.09;;;9.04;100.00
9141;BME280;46330;50.822;7.126;2023-02-19T00:36:52;101204.22;;;9.06;100.00
9141;BME280;46330;50.822;7.126;2023-02-19T00:39:20;101198.13;;;9.07;100.00
9141;BME280;46330;50.822;7.126;2023-02-19T00:41:49;101202.47;;;9.08;100.00
9141;BME280;46330;50.822;7.126;2023-02-19T00:44:19;101198.97;;;9.09;100.00
9141;BME280;46330;50.822;7.126;2023-02-19T00:46:47;101191.16;;;9.08;100.00
9141;BME280;46330;50.822;7.126;2023-02-19T00:49:17;101196.38;;;9.09;100.00
9141;BME280;46330;50.822;7.126;2023-02-19T00:51:47;101199.00;;;9.08;100.00
9141;BME280;46330;50.822;7.126;2023-02-19T00:54:16;101199.00;;;9.11;100.00
9141;BME280;46330;50.822;7.126;2023-02-19T00:56:45;101192.03;;;9.11;100.00
9141;BME280;46330;50.822;7.126;2023-02-19T00:59:13;101183.31;;;9.12;100.00
9141;BME280;46330;50.822;7.126;2023-02-19T01:01:44;101181.59;;;9.07;100.00
9141;BME280;46330;50.822;7.126;2023-02-19T01:04:12;101192.91;;;9.12;100.00
9141;BME280;46330;50.822;7.126;2023-02-19T01:06:42;101187.66;;;9.13;100.00
9141;BME280;46330;50.822;7.126;2023-02-19T01:09:10;101182.44;;;9.15;100.00
9141;BME280;46330;50.822;7.126;2023-02-19T01:11:38;101175.47;;;9.15;100.00
9141;BME280;46330;50.822;7.126;2023-02-19T01:14:06;101172.88;;;9.17;100.00
9141;BME280;46330;50.822;7.126;2023-02-19T01:16:34;101170.19;;;9.31;100.00
9141;BME280;46330;50.822;7.126;2023-02-19T01:19:03;101167.59;;;9.28;100.00
9141;BME280;46330;50.822;7.126;2023-02-19T01:21:31;101166.72;;;9.26;100.00
9141;BME280;46330;50.822;7.126;2023-02-19T01:23:59;101167.59;;;9.28;100.00
9141;BME280;46330;50.822;7.126;2023-02-19T01:26:29;101165.81;;;9.28;100.00
9141;BME280;46330;50.822;7.126;2023-02-19T01:28:58;101158.91;;;9.24;100.00
9141;BME280;46330;50.822;7.126;2023-02-19T01:31:27;101168.47;;;9.27;100.00
9141;BME280;46330;50.822;7.126;2023-02-19T01:33:57;101170.16;;;9.34;100.00
9141;BME280;46330;50.822;7.126;2023-02-19T01:36:28;101166.69;;;9.33;100.00
9141;BME280;46330;50.822;7.126;2023-02-19T01:38:59;101171.91;;;9.32;100.00
9141;BME280;46330;50.822;7.126;2023-02-19T01:41:31;101164.94;;;9.32;100.00
9141;BME280;46330;50.822;7.126;2023-02-19T01:44:02;101164.06;;;9.33;100.00
9141;BME280;46330;50.822;7.126;2023-02-19T01:46:35;101171.88;;;9.35;100.00
9141;BME280;46330;50.822;7.126;2023-02-19T01:49:08;101173.63;;;9.31;100.00
9141;BME280;46330;50.822;7.126;2023-02-19T01:51:43;101167.56;;;9.34;100.00
9141;BME280;46330;50.822;7.126;2023-02-19T01:54:14;101168.41;;;9.34;100.00
9141;BME280;46330;50.822;7.126;2023-02-19T01:56:45;101168.41;;;9.36;100.00
9141;BME280;46330;50.822;7.126;2023-02-19T01:59:16;101164.06;;;9.35;100.00
9141;BME280;46330;50.822;7.126;2023-02-19T02:01:45;101167.53;;;9.37;100.00
9141;BME280;46330;50.822;7.126;2023-02-19T02:04:14;101178.84;;;9.39;100.00
9141;BME280;46330;50.822;7.126;2023-02-19T02:06:47;101173.63;;;9.36;100.00
9141;BME280;46330;50.822;7.126;2023-02-19T02:09:18;101168.38;;;9.37;100.00
9141;BME280;46330;50.822;7.126;2023-02-19T02:12:04;101169.28;;;9.35;100.00
9141;BME280;46330;50.822;7.126;2023-02-19T02:14:36;101172.75;;;9.38;100.00
9141;BME280;46330;50.822;7.126;2023-02-19T02:17:12;101176.22;;;9.39;100.00
9141;BME280;46330;50.822;7.126;2023-02-19T02:20:12;101174.47;;;9.39;100.00
9141;BME280;46330;50.822;7.126;2023-02-19T02:22:54;101161.44;;;9.39;100.00
9141;BME280;46330;50.822;7.126;2023-02-19T02:25:54;101159.69;;;9.40;100.00
9141;BME280;46330;50.822;7.126;2023-02-19T02:28:47;101165.78;;;9.39;100.00
9141;BME280;46330;50.822;7.126;2023-02-19T02:31:24;101160.56;;;9.39;100.00
9141;BME280;46330;50.822;7.126;2023-02-19T02:34:00;101165.75;;;9.42;100.00
9141;BME280;46330;50.822;7.126;2023-02-19T02:36:31;101166.63;;;9.42;100.00
9141;BME280;46330;50.822;7.126;2023-02-19T02:39:02;101156.16;;;9.44;100.00
9141;BME280;46330;50.822;7.126;2023-02-19T02:41:41;101150.06;;;9.45;100.00
9141;BME280;46330;50.822;7.126;2023-02-19T02:44:10;101159.63;;;9.47;100.00
9141;BME280;46330;50.822;7.126;2023-02-19T02:46:41;101156.13;;;9.51;100.00
9141;BME280;46330;50.822;7.126;2023-02-19T02:49:19;101156.97;;;9.53;100.00
9141;BME280;46330;50.822;7.126;2023-02-19T02:51:51;101150.00;;;9.54;100.00
9141;BME280;46330;50.822;7.126;2023-02-19T02:54:27;101143.97;;;9.49;100.00
9141;BME280;46330;50.822;7.126;2023-02-19T02:57:16;101149.19;;;9.44;100.00
9141;BME280;46330;50.822;7.126;2023-02-19T02:59:50;101151.84;;;9.43;100.00
9141;BME280;46330;50.822;7.126;2023-02-19T03:02:23;101155.28;;;9.45;100.00
9141;BME280;46330;50.822;7.126;2023-02-19T03:04:54;101150.13;;;9.39;100.00
9141;BME280;46330;50.822;7.126;2023-02-19T03:07:45;101154.44;;;9.41;100.00
9141;BME280;46330;50.822;7.126;2023-02-19T03:10:22;101166.66;;;9.35;100.00
9141;BME280;46330;50.822;7.126;2023-02-19T03:12:53;101166.69;;;9.32;100.00
9141;BME280;46330;50.822;7.126;2023-02-19T03:15:57;101160.66;;;9.24;100.00
9141;BME280;46330;50.822;7.126;2023-02-19T03:18:45;101165.84;;;9.25;100.00
9141;BME280;46330;50.822;7.126;2023-02-19T03:21:34;101162.38;;;9.23;100.00
9141;BME280;46330;50.822;7.126;2023-02-19T03:24:09;101168.47;;;9.22;100.00
9141;BME280;46330;50.822;7.126;2023-02-19T03:26:56;101169.34;;;9.23;100.00
9141;BME280;46330;50.822;7.126;2023-02-19T03:29:31;101171.97;;;9.21;100.00
9141;BME280;46330;50.822;7.126;2023-02-19T03:32:06;101169.38;;;9.19;100.00
9141;BME280;46330;50.822;7.126;2023-02-19T03:34:40;101171.13;;;9.17;100.00
9141;BME280;46330;50.822;7.126;2023-02-19T03:37:11;101171.97;;;9.19;100.00
9141;BME280;46330;50.822;7.126;2023-02-19T03:39:40;101179.78;;;9.23;100.00
9141;BME280;46330;50.822;7.126;2023-02-19T03:42:19;101180.69;;;9.20;100.00
9141;BME280;46330;50.822;7.126;2023-02-19T03:44:58;101186.75;;;9.21;100.00
9141;BME280;46330;50.822;7.126;2023-02-19T03:47:33;101186.78;;;9.17;100.00
9141;BME280;46330;50.822;7.126;2023-02-19T03:50:11;101193.72;;;9.20;100.00
9141;BME280;46330;50.822;7.126;2023-02-19T03:52:51;101196.34;;;9.20;100.00
9141;BME280;46330;50.822;7.126;2023-02-19T03:55:26;101195.47;;;9.19;100.00
9141;BME280;46330;50.822;7.126;2023-02-19T03:58:06;101199.81;;;9.21;100.00
9141;BME280;46330;50.822;7.126;2023-02-19T04:00:39;101195.47;;;9.19;100.00
9141;BME280;46330;50.822;7.126;2023-02-19T04:03:16;101199.81;;;9.21;100.00
9141;BME280;46330;50.822;7.126;2023-02-19T04:05:51;101201.56;;;9.20;100.00
9141;BME280;46330;50.822;7.126;2023-02-19T04:08:23;101198.06;;;9.19;100.00
9141;BME280;46330;50.822;7.126;2023-02-19T04:10:59;101206.78;;;9.20;100.00
9141;BME280;46330;50.822;7.126;2023-02-19T04:13:33;101199.84;;;9.17;100.00
9141;BME280;46330;50.822;7.126;2023-02-19T04:16:07;101209.38;;;9.18;100.00
9141;BME280;46330;50.822;7.126;2023-02-19T04:18:40;101220.69;;;9.19;100.00
9141;BME280;46330;50.822;7.126;2023-02-19T04:21:10;101214.59;;;9.18;100.00
9141;BME280;46330;50.822;7.126;2023-02-19T04:23:42;101223.28;;;9.19;100.00
9141;BME280;46330;50.822;7.126;2023-02-19T04:26:12;101227.66;;;9.20;100.00
9141;BME280;46330;50.822;7.126;2023-02-19T04:28:41;101238.09;;;9.18;100.00
9141;BME280;46330;50.822;7.126;2023-02-19T04:31:09;101230.28;;;9.14;100.00
9141;BME280;46330;50.822;7.126;2023-02-19T04:33:38;101224.22;;;9.12;100.00
9141;BME280;46330;50.822;7.126;2023-02-19T04:36:10;101220.75;;;9.08;100.00
9141;BME280;46330;50.822;7.126;2023-02-19T04:38:38;101237.28;;;9.09;100.00
9141;BME280;46330;50.822;7.126;2023-02-19T04:41:07;101235.50;;;9.09;100.00
9141;BME280;46330;50.822;7.126;2023-02-19T04:43:36;101239.91;;;9.06;100.00
9141;BME280;46330;50.822;7.126;2023-02-19T04:46:04;101241.63;;;9.05;100.00
9141;BME280;46330;50.822;7.126;2023-02-19T04:48:32;101256.41;;;9.05;100.00
9141;BME280;46330;50.822;7.126;2023-02-19T04:51:04;101252.94;;;9.04;100.00
9141;BME280;46330;50.822;7.126;2023-02-19T04:53:33;101249.47;;;9.08;100.00
9141;BME280;46330;50.822;7.126;2023-02-19T04:56:06;101253.78;;;9.09;100.00
9141;BME280;46330;50.822;7.126;2023-02-19T04:58:34;101265.09;;;9.07;100.00
9141;BME280;46330;50.822;7.126;2023-02-19T05:01:03;101259.00;;;9.06;100.00
9141;BME280;46330;50.822;7.126;2023-02-19T05:03:31;101259.03;;;9.05;100.00
9141;BME280;46330;50.822;7.126;2023-02-19T05:06:01;101255.56;;;9.06;100.00
9141;BME280;46330;50.822;7.126;2023-02-19T05:08:29;101265.09;;;9.04;100.00
9141;BME280;46330;50.822;7.126;2023-02-19T05:10:59;101266.00;;;8.98;100.00
9141;BME280;46330;50.822;7.126;2023-02-19T05:13:29;101260.78;;;9.01;100.00
9141;BME280;46330;50.822;7.126;2023-02-19T05:15:59;101263.38;;;9.00;100.00
9141;BME280;46330;50.822;7.126;2023-02-19T05:18:29;101266.00;;;8.97;100.00
9141;BME280;46330;50.822;7.126;2023-02-19T05:20:58;101269.47;;;8.97;100.00
9141;BME280;46330;50.822;7.126;2023-02-19T05:23:26;101272.09;;;8.96;100.00
9141;BME280;46330;50.822;7.126;2023-02-19T05:25:55;101265.16;;;8.90;100.00
9141;BME280;46330;50.822;7.126;2023-02-19T05:28:24;101263.41;;;8.88;100.00
9141;BME280;46330;50.822;7.126;2023-02-19T05:30:55;101267.75;;;8.84;100.00
9141;BME280;46330;50.822;7.126;2023-02-19T05:33:24;101279.06;;;8.82;100.00
9141;BME280;46330;50.822;7.126;2023-02-19T05:35:54;101270.38;;;8.81;100.00
9141;BME280;46330;50.822;7.126;2023-02-19T05:38:22;101277.34;;;8.82;100.00
9141;BME280;46330;50.822;7.126;2023-02-19T05:40:51;101280.81;;;8.78;100.00
9141;BME280;46330;50.822;7.126;2023-02-19T05:43:19;101273.00;;;8.77;100.00
9141;BME280;46330;50.822;7.126;2023-02-19T05:45:48;101284.31;;;8.77;100.00
9141;BME280;46330;50.822;7.126;2023-02-19T05:48:16;101292.13;;;8.77;100.00
9141;BME280;46330;50.822;7.126;2023-02-19T05:50:44;101306.06;;;8.78;100.00
9141;BME280;46330;50.822;7.126;2023-02-19T05:53:12;101304.31;;;8.80;100.00
9141;BME280;46330;50.822;7.126;2023-02-19T05:55:40;101313.88;;;8.76;100.00
9141;BME280;46330;50.822;7.126;2023-02-19T05:58:08;101311.25;;;8.76;100.00
9141;BME280;46330;50.822;7.126;2023-02-19T06:00:36;101313.88;;;8.73;100.00
9141;BME280;46330;50.822;7.126;2023-02-19T06:03:05;101321.69;;;8.76;100.00
9141;BME280;46330;50.822;7.126;2023-02-19T06:05:33;101319.94;;;8.80;100.00
9141;BME280;46330;50.822;7.126;2023-02-19T06:08:01;101327.78;;;8.80;100.00
9141;BME280;46330;50.822;7.126;2023-02-19T06:10:29;101323.41;;;8.79;100.00
9141;BME280;46330;50.822;7.126;2023-02-19T06:12:57;101325.16;;;8.80;100.00
9141;BME280;46330;50.822;7.126;2023-02-19T06:15:25;101326.91;;;8.78;100.00
9141;BME280;46330;50.822;7.126;2023-02-19T06:17:53;101335.59;;;8.75;100.00
9141;BME280;46330;50.822;7.126;2023-02-19T06:20:22;101342.56;;;8.79;100.00
9141;BME280;46330;50.822;7.126;2023-02-19T06:22:52;101341.69;;;8.76;100.00
9141;BME280;46330;50.822;7.126;2023-02-19T06:25:20;101334.72;;;8.73;100.00
9141;BME280;46330;50.822;7.126;2023-02-19T06:27:48;101336.47;;;8.71;100.00
9141;BME280;46330;50.822;7.126;2023-02-19T06:30:16;101336.50;;;8.68;100.00
9141;BME280;46330;50.822;7.126;2023-02-19T06:32:44;101349.53;;;8.68;100.00
9141;BME280;46330;50.822;7.126;2023-02-19T06:35:12;101352.97;;;8.65;100.00
9141;BME280;46330;50.822;7.126;2023-02-19T06:37:41;101372.09;;;8.66;100.00
9141;BME280;46330;50.822;7.126;2023-02-19T06:40:12;101352.97;;;8.65;100.00
9141;BME280;46330;50.822;7.126;2023-02-19T06:42:40;101351.25;;;8.63;100.00
9141;BME280;46330;50.822;7.126;2023-02-19T06:45:08;101353.00;;;8.64;100.00
9141;BME280;46330;50.822;7.126;2023-02-19T06:47:36;101356.47;;;8.64;100.00
9141;BME280;46330;50.822;7.126;2023-02-19T06:50:05;101363.44;;;8.67;100.00
9141;BME280;46330;50.822;7.126;2023-02-19T06:52:33;101372.09;;;8.69;100.00
9141;BME280;46330;50.822;7.126;2023-02-19T06:55:03;101374.72;;;8.69;100.00
9141;BME280;46330;50.822;7.126;2023-02-19T06:57:31;101382.56;;;8.68;100.00
9141;BME280;46330;50.822;7.126;2023-02-19T06:59:59;101379.09;;;8.69;100.00
9141;BME280;46330;50.822;7.126;2023-02-19T07:02:27;101392.97;;;8.69;100.00
9141;BME280;46330;50.822;7.126;2023-02-19T07:04:56;101388.66;;;8.71;100.00
9141;BME280;46330;50.822;7.126;2023-02-19T07:07:23;101388.63;;;8.70;100.00
9141;BME280;46330;50.822;7.126;2023-02-19T07:09:51;101398.19;;;8.72;100.00
9141;BME280;46330;50.822;7.126;2023-02-19T07:12:21;101393.84;;;8.71;100.00
9141;BME280;46330;50.822;7.126;2023-02-19T07:14:49;101407.78;;;8.72;100.00
9141;BME280;46330;50.822;7.126;2023-02-19T07:17:17;101401.69;;;8.74;100.00
9141;BME280;46330;50.822;7.126;2023-02-19T07:19:45;101410.38;;;8.75;100.00
9141;BME280;46330;50.822;7.126;2023-02-19T07:22:13;101419.06;;;8.81;100.00
9141;BME280;46330;50.822;7.126;2023-02-19T07:24:41;101424.25;;;8.78;100.00
9141;BME280;46330;50.822;7.126;2023-02-19T07:27:10;101423.41;;;8.82;100.00
9141;BME280;46330;50.822;7.126;2023-02-19T07:29:39;101432.09;;;8.81;100.00
9141;BME280;46330;50.822;7.126;2023-02-19T07:32:07;101437.31;;;8.83;100.00
9141;BME280;46330;50.822;7.126;2023-02-19T07:34:35;101440.78;;;8.82;100.00
9141;BME280;46330;50.822;7.126;2023-02-19T07:37:03;101442.53;;;8.78;100.00
9141;BME280;46330;50.822;7.126;2023-02-19T07:39:31;101446.03;;;8.80;100.00
9141;BME280;46330;50.822;7.126;2023-02-19T07:41:59;101456.44;;;8.79;100.00
9141;BME280;46330;50.822;7.126;2023-02-19T07:44:30;101453.81;;;8.73;100.00
9141;BME280;46330;50.822;7.126;2023-02-19T07:47:00;101460.78;;;8.72;100.00
9141;BME280;46330;50.822;7.126;2023-02-19T07:49:28;101471.22;;;8.75;100.00
9141;BME280;46330;50.822;7.126;2023-02-19T07:51:56;101476.44;;;8.77;100.00
9141;BME280;46330;50.822;7.126;2023-02-19T07:54:24;101479.03;;;8.72;100.00
9141;BME280;46330;50.822;7.126;2023-02-19T07:56:52;101476.44;;;8.77;100.00
9141;BME280;46330;50.822;7.126;2023-02-19T07:59:20;101474.72;;;8.74;100.00
9141;BME280;46330;50.822;7.126;2023-02-19T08:01:48;101482.53;;;8.74;100.00
9141;BME280;46330;50.822;7.126;2023-02-19T08:04:34;101486.00;;;8.73;100.00
9141;BME280;46330;50.822;7.126;2023-02-19T08:07:03;101484.25;;;8.84;100.00
9141;BME280;46330;50.822;7.126;2023-02-19T08:09:32;101483.41;;;9.00;100.00
9141;BME280;46330;50.822;7.126;2023-02-19T08:12:00;101495.59;;;9.07;100.00
9141;BME280;46330;50.822;7.126;2023-02-19T08:14:45;101502.56;;;9.07;100.00
9141;BME280;46330;50.822;7.126;2023-02-19T08:17:13;101507.78;;;8.99;100.00
9141;BME280;46330;50.822;7.126;2023-02-19T08:19:43;101505.19;;;8.96;100.00
9141;BME280;46330;50.822;7.126;2023-02-19T08:22:11;101506.03;;;8.94;100.00
9141;BME280;46330;50.822;7.126;2023-02-19T08:24:41;101513.88;;;9.01;100.00
9141;BME280;46330;50.822;7.126;2023-02-19T08:27:10;101519.09;;;8.98;100.00
9141;BME280;46330;50.822;7.126;2023-02-19T08:29:38;101524.31;;;9.01;100.00
9141;BME280;46330;50.822;7.126;2023-02-19T08:32:06;101521.69;;;8.98;100.00
9141;BME280;46330;50.822;7.126;2023-02-19T08:34:35;101520.84;;;8.93;100.00
9141;BME280;46330;50.822;7.126;2023-02-19T08:37:04;101530.38;;;8.97;100.00
9141;BME280;46330;50.822;7.126;2023-02-19T08:39:32;101532.13;;;8.95;100.00
9141;BME280;46330;50.822;7.126;2023-02-19T08:42:00;101539.09;;;8.99;100.00
9141;BME280;46330;50.822;7.126;2023-02-19T08:44:28;101551.25;;;8.94;100.00
9141;BME280;46330;50.822;7.126;2023-02-19T08:46:57;101545.19;;;8.95;100.00
9141;BME280;46330;50.822;7.126;2023-02-19T08:49:25;101543.44;;;9.06;100.00
9141;BME280;46330;50.822;7.126;2023-02-19T08:51:53;101547.81;;;9.06;100.00
9141;BME280;46330;50.822;7.126;2023-02-19T08:54:22;101546.94;;;9.13;100.00
9141;BME280;46330;50.822;7.126;2023-02-19T08:56:50;101546.94;;;9.25;100.00
9141;BME280;46330;50.822;7.126;2023-02-19T08:59:18;101548.72;;;9.25;100.00
9141;BME280;46330;50.822;7.126;2023-02-19T09:01:46;101548.69;;;9.23;100.00
9141;BME280;46330;50.822;7.126;2023-02-19T09:04:14;101553.06;;;9.27;100.00
9141;BME280;46330;50.822;7.126;2023-02-19T09:06:43;101555.66;;;9.33;100.00
9141;BME280;46330;50.822;7.126;2023-02-19T09:09:12;101560.88;;;9.39;100.00
9141;BME280;46330;50.822;7.126;2023-02-19T09:11:41;101563.47;;;9.41;100.00
9141;BME280;46330;50.822;7.126;2023-02-19T09:14:10;101560.88;;;9.54;100.00
9141;BME280;46330;50.822;7.126;2023-02-19T09:16:38;101560.88;;;9.68;100.00
9141;BME280;46330;50.822;7.126;2023-02-19T09:19:06;101559.13;;;9.64;100.00
9141;BME280;46330;50.822;7.126;2023-02-19T09:21:34;101558.28;;;9.62;100.00
9141;BME280;46330;50.822;7.126;2023-02-19T09:24:02;101566.09;;;9.69;100.00
9141;BME280;46330;50.822;7.126;2023-02-19T09:26:30;101558.25;;;9.82;100.00
9141;BME280;46330;50.822;7.126;2023-02-19T09:28:59;101566.06;;;9.98;100.00
9141;BME280;46330;50.822;7.126;2023-02-19T09:31:27;101562.56;;;9.95;100.00
9141;BME280;46330;50.822;7.126;2023-02-19T09:33:56;101569.53;;;9.94;100.00
9141;BME280;46330;50.822;7.126;2023-02-19T09:36:24;101575.66;;;9.89;100.00
9141;BME280;46330;50.822;7.126;2023-02-19T09:38:52;101583.47;;;9.93;100.00
9141;BME280;46330;50.822;7.126;2023-02-19T09:41:24;101583.50;;;9.89;100.00
9141;BME280;46330;50.822;7.126;2023-02-19T09:43:56;101578.28;;;9.86;100.00
9141;BME280;46330;50.822;7.126;2023-02-19T09:46:30;101589.59;;;9.88;100.00
9141;BME280;46330;50.822;7.126;2023-02-19T09:49:02;101595.69;;;9.85;100.00
9141;BME280;46330;50.822;7.126;2023-02-19T09:51:34;101593.09;;;9.79;100.00
9141;BME280;46330;50.822;7.126;2023-02-19T09:54:05;101597.44;;;9.79;100.00
9141;BME280;46330;50.822;7.126;2023-02-19T09:56:34;101601.78;;;9.80;100.00
9141;BME280;46330;50.822;7.126;2023-02-19T09:59:03;101593.09;;;9.84;100.00
9141;BME280;46330;50.822;7.126;2023-02-19T10:01:36;101598.31;;;9.84;100.00
9141;BME280;46330;50.822;7.126;2023-02-19T10:04:05;101603.53;;;9.87;100.00
9141;BME280;46330;50.822;7.126;2023-02-19T10:06:33;101607.03;;;9.86;100.00
9141;BME280;46330;50.822;7.126;2023-02-19T10:09:13;101613.97;;;9.68;100.00
9141;BME280;46330;50.822;7.126;2023-02-19T10:11:45;101617.47;;;9.45;100.00
9141;BME280;46330;50.822;7.126;2023-02-19T10:14:16;101624.44;;;9.55;100.00
9141;BME280;46330;50.822;7.126;2023-02-19T10:16:48;101617.47;;;9.57;100.00
9141;BME280;46330;50.822;7.126;2023-02-19T10:19:16;101618.31;;;9.47;100.00
9141;BME280;46330;50.822;7.126;2023-02-19T10:21:44;101627.06;;;9.52;100.00
9141;BME280;46330;50.822;7.126;2023-02-19T10:24:17;101632.28;;;9.58;100.00
9141;BME280;46330;50.822;7.126;2023-02-19T10:26:46;101635.75;;;9.61;100.00
9141;BME280;46330;50.822;7.126;2023-02-19T10:29:16;101642.72;;;9.61;100.00
9141;BME280;46330;50.822;7.126;2023-02-19T10:31:47;101652.31;;;9.68;100.00
9141;BME280;46330;50.822;7.126;2023-02-19T10:34:18;101655.78;;;9.79;100.00
9141;BME280;46330;50.822;7.126;2023-02-19T10:36:48;101662.75;;;9.91;100.00
9141;BME280;46330;50.822;7.126;2023-02-19T10:39:38;101674.09;;;9.90;100.00
9141;BME280;46330;50.822;7.126;2023-02-19T10:42:16;101664.50;;;9.84;100.00
9141;BME280;46330;50.822;7.126;2023-02-19T10:44:47;101661.88;;;9.84;100.00
9141;BME280;46330;50.822;7.126;2023-02-19T10:47:21;101663.63;;;10.00;100.00
9141;BME280;46330;50.822;7.126;2023-02-19T10:49:50;101670.59;;;10.03;100.00
9141;BME280;46330;50.822;7.126;2023-02-19T10:52:21;101667.97;;;10.07;100.00
9141;BME280;46330;50.822;7.126;2023-02-19T10:54:52;101682.81;;;9.99;100.00
9141;BME280;46330;50.822;7.126;2023-02-19T10:57:27;101687.16;;;9.88;100.00
9141;BME280;46330;50.822;7.126;2023-02-19T11:00:19;101689.75;;;9.76;100.00
9141;BME280;46330;50.822;7.126;2023-02-19T11:03:17;101693.22;;;9.69;100.00
9141;BME280;46330;50.822;7.126;2023-02-19T11:05:52;101697.59;;;9.70;100.00
9141;BME280;46330;50.822;7.126;2023-02-19T11:08:23;101706.28;;;9.63;100.00
9141;BME280;46330;50.822;7.126;2023-02-19T11:10:51;101704.50;;;9.47;100.00
9141;BME280;46330;50.822;7.126;2023-02-19T11:13:25;101706.25;;;9.45;100.00
9141;BME280;46330;50.822;7.126;2023-02-19T11:15:54;101710.63;;;9.49;100.00
9141;BME280;46330;50.822;7.126;2023-02-19T11:18:25;101701.94;;;9.69;100.00
9141;BME280;46330;50.822;7.126;2023-02-19T11:20:55;101700.19;;;9.78;100.00
9141;BME280;46330;50.822;7.126;2023-02-19T11:23:26;101711.53;;;10.01;100.00
9141;BME280;46330;50.822;7.126;2023-02-19T11:25:57;101711.53;;;10.07;100.00
9141;BME280;46330;50.822;7.126;2023-02-19T11:28:30;101712.47;;;10.18;100.00
9141;BME280;46330;50.822;7.126;2023-02-19T11:31:13;101724.63;;;9.99;100.00
9141;BME280;46330;50.822;7.126;2023-02-19T11:33:46;101724.63;;;10.02;100.00
9141;BME280;46330;50.822;7.126;2023-02-19T11:36:26;101725.50;;;10.10;100.00
9141;BME280;46330;50.822;7.126;2023-02-19T11:38:58;101719.38;;;10.10;100.00
9141;BME280;46330;50.822;7.126;2023-02-19T11:41:55;101714.19;;;10.14;100.00
9141;BME280;46330;50.822;7.126;2023-02-19T11:44:37;101708.06;;;10.18;100.00
9141;BME280;46330;50.822;7.126;2023-02-19T11:47:36;101713.28;;;9.94;98.89
9141;BME280;46330;50.822;7.126;2023-02-19T11:50:17;101718.50;;;9.88;98.93
9141;BME280;46330;50.822;7.126;2023-02-19T11:52:54;101709.78;;;9.91;100.00
9141;BME280;46330;50.822;7.126;2023-02-19T11:55:36;101707.19;;;10.01;99.94
9141;BME280;46330;50.822;7.126;2023-02-19T11:58:34;101711.56;;;10.16;99.82
9141;BME280;46330;50.822;7.126;2023-02-19T12:01:11;101707.16;;;10.12;99.88
9141;BME280;46330;50.822;7.126;2023-02-19T12:03:58;101708.94;;;10.19;99.70
9141;BME280;46330;50.822;7.126;2023-02-19T12:06:43;101709.81;;;10.10;99.39
9141;BME280;46330;50.822;7.126;2023-02-19T12:09:30;101716.78;;;10.10;98.89
9141;BME280;46330;50.822;7.126;2023-02-19T12:12:22;101715.91;;;10.05;98.79
9141;BME280;46330;50.822;7.126;2023-02-19T12:15:05;101705.47;;;10.17;98.81
9141;BME280;46330;50.822;7.126;2023-02-19T12:17:47;101695.84;;;10.07;97.16
9141;BME280;46330;50.822;7.126;2023-02-19T12:20:25;101695.91;;;10.20;97.00
9141;BME280;46330;50.822;7.126;2023-02-19T12:23:24;101688.91;;;10.36;97.76
9141;BME280;46330;50.822;7.126;2023-02-19T12:25:58;101688.00;;;10.37;97.14
9141;BME280;46330;50.822;7.126;2023-02-19T12:28:38;101697.63;;;10.43;97.67
9141;BME280;46330;50.822;7.126;2023-02-19T12:31:39;101697.63;;;10.35;96.42
9141;BME280;46330;50.822;7.126;2023-02-19T12:34:24;101699.34;;;10.39;96.61
9141;BME280;46330;50.822;7.126;2023-02-19T12:37:07;101699.34;;;10.44;96.26
9141;BME280;46330;50.822;7.126;2023-02-19T12:39:48;101701.94;;;10.56;96.94
9141;BME280;46330;50.822;7.126;2023-02-19T12:42:30;101701.03;;;10.63;96.97
9141;BME280;46330;50.822;7.126;2023-02-19T12:45:14;101710.59;;;10.77;97.75
9141;BME280;46330;50.822;7.126;2023-02-19T12:47:56;101710.56;;;10.87;95.68
9141;BME280;46330;50.822;7.126;2023-02-19T12:50:27;101704.41;;;11.03;94.80
9141;BME280;46330;50.822;7.126;2023-02-19T12:53:01;101704.22;;;11.41;93.45
9141;BME280;46330;50.822;7.126;2023-02-19T12:55:37;101707.50;;;11.79;91.75
9141;BME280;46330;50.822;7.126;2023-02-19T12:58:12;101703.91;;;11.92;89.90
9141;BME280;46330;50.822;7.126;2023-02-19T13:00:46;101703.81;;;12.03;88.15
9141;BME280;46330;50.822;7.126;2023-02-19T13:03:18;101703.03;;;11.90;88.10
9141;BME280;46330;50.822;7.126;2023-02-19T13:05:51;101701.53;;;11.51;89.77
9141;BME280;46330;50.822;7.126;2023-02-19T13:08:25;101705.19;;;11.21;90.57
9141;BME280;46330;50.822;7.126;2023-02-19T13:10:58;101717.09;;;11.80;90.31
9141;BME280;46330;50.822;7.126;2023-02-19T13:13:30;101710.19;;;11.62;89.85
9141;BME280;46330;50.822;7.126;2023-02-19T13:16:02;101718.03;;;11.67;89.94
9141;BME280;46330;50.822;7.126;2023-02-19T13:18:39;101727.63;;;11.68;89.40
9141;BME280;46330;50.822;7.126;2023-02-19T13:21:09;101715.59;;;11.38;89.87
9141;BME280;46330;50.822;7.126;2023-02-19T13:23:40;101727.00;;;11.26;90.32
9141;BME280;46330;50.822;7.126;2023-02-19T13:26:42;101730.56;;;11.09;91.63
9141;BME280;46330;50.822;7.126;2023-02-19T13:29:21;101733.25;;;10.91;92.27